createdAt,value
2024-05-09T00:00:31.626Z,79.51
2024-05-09T00:03:05.609Z,79.36
2024-05-09T00:05:32.417Z,79.48
2024-05-09T00:07:59.180Z,79.65
2024-05-09T00:10:33.468Z,80.20
2024-05-09T00:13:03.811Z,81.03
2024-05-09T00:15:30.343Z,81.15
2024-05-09T00:17:57.412Z,82.46
2024-05-09T00:20:28.733Z,82.60
2024-05-09T00:23:03.297Z,87.11
2024-05-09T00:25:30.001Z,85.56
2024-05-09T00:27:56.576Z,83.95
2024-05-09T00:30:31.620Z,88.73
2024-05-09T00:33:02.007Z,87.26
2024-05-09T00:35:28.969Z,87.98
2024-05-09T00:37:55.692Z,86.46
2024-05-09T00:40:30.898Z,86.70
2024-05-09T00:43:05.844Z,87.85
2024-05-09T00:45:33.954Z,85.58
2024-05-09T00:48:04.002Z,85.39
2024-05-09T00:50:36.374Z,85.65
2024-05-09T00:53:06.183Z,85.56
2024-05-09T00:55:34.857Z,85.57
2024-05-09T00:58:02.390Z,85.40
2024-05-09T01:00:37.413Z,85.70
2024-05-09T01:03:07.002Z,85.69
2024-05-09T01:05:33.816Z,85.76
2024-05-09T01:08:00.565Z,85.73
2024-05-09T01:10:33.703Z,86.61
2024-05-09T01:13:03.124Z,87.61
2024-05-09T01:15:29.702Z,88.61
2024-05-09T01:17:57.956Z,88.34
2024-05-09T01:20:36.492Z,88.77
2024-05-09T01:23:08.982Z,87.89
2024-05-09T01:25:35.904Z,87.16
2024-05-09T01:28:02.490Z,87.39
2024-05-09T01:30:34.600Z,87.53
2024-05-09T01:33:05.068Z,88.39
2024-05-09T01:35:32.583Z,88.37
2024-05-09T01:37:59.535Z,87.81
2024-05-09T01:40:36.155Z,87.51
2024-05-09T01:43:06.097Z,88.50
2024-05-09T01:45:32.958Z,88.23
2024-05-09T01:47:59.879Z,88.24
2024-05-09T01:50:36.927Z,89.59
2024-05-09T01:53:08.065Z,89.12
2024-05-09T01:55:34.798Z,89.60
2024-05-09T01:58:01.388Z,89.47
2024-05-09T02:00:36.960Z,89.70
2024-05-09T02:03:09.438Z,89.72
2024-05-09T02:05:36.616Z,89.22
2024-05-09T02:08:04.224Z,89.38
2024-05-09T02:10:32.987Z,89.05
2024-05-09T02:13:01.111Z,89.44
2024-05-09T02:15:27.772Z,90.60
2024-05-09T02:17:54.603Z,92.10
2024-05-09T02:22:51.251Z,92.74
2024-05-09T02:25:17.959Z,91.75
2024-05-09T02:27:44.711Z,92.02
2024-05-09T02:30:18.764Z,92.04
2024-05-09T02:32:52.870Z,91.82
2024-05-09T02:35:19.829Z,91.68
2024-05-09T02:37:46.473Z,92.95
2024-05-09T02:40:14.995Z,94.39
2024-05-09T02:42:44.850Z,95.07
2024-05-09T02:45:11.454Z,95.30
2024-05-09T02:47:38.208Z,94.48
2024-05-09T02:50:07.794Z,93.47
2024-05-09T02:52:34.503Z,93.43
2024-05-09T02:55:01.056Z,95.40
2024-05-09T02:57:27.537Z,94.02
2024-05-09T02:59:54.453Z,93.70
2024-05-09T03:02:21.308Z,93.50
2024-05-09T03:04:48.353Z,94.02
2024-05-09T03:07:14.889Z,93.92
2024-05-09T03:09:51.059Z,93.75
2024-05-09T03:12:17.688Z,93.91
2024-05-09T03:14:44.546Z,93.77
2024-05-09T03:17:11.032Z,93.78
2024-05-09T03:19:37.729Z,94.44
2024-05-09T03:22:05.005Z,94.33
2024-05-09T03:24:31.530Z,93.91
2024-05-09T03:26:57.976Z,93.88
2024-05-09T03:29:25.135Z,94.40
2024-05-09T03:31:51.838Z,94.23
2024-05-09T03:34:18.583Z,94.06
2024-05-09T03:36:45.463Z,94.79
2024-05-09T03:39:12.228Z,95.01
2024-05-09T03:41:39.228Z,95.05
2024-05-09T03:44:06.097Z,95.02
2024-05-09T03:46:37.778Z,95.21
2024-05-09T03:49:04.447Z,95.50
2024-05-09T03:51:32.039Z,94.96
2024-05-09T03:53:58.638Z,94.96
2024-05-09T03:56:25.459Z,95.41
2024-05-09T03:58:52.575Z,97.17
2024-05-09T04:01:19.250Z,96.28
2024-05-09T04:03:46.256Z,95.74
2024-05-09T04:06:20.469Z,95.98
2024-05-09T04:08:47.076Z,95.18
2024-05-09T04:11:14.068Z,94.56
2024-05-09T04:13:40.721Z,94.16
2024-05-09T04:16:10.244Z,93.13
2024-05-09T04:18:37.374Z,92.27
2024-05-09T04:21:04.650Z,91.56
2024-05-09T04:23:31.433Z,91.13
2024-05-09T04:25:58.062Z,90.13
2024-05-09T04:28:26.215Z,89.13
2024-05-09T04:30:52.799Z,88.52
2024-05-09T04:33:19.619Z,86.56
2024-05-09T04:35:46.389Z,86.64
2024-05-09T04:38:14.027Z,87.10
2024-05-09T04:40:41.369Z,86.13
2024-05-09T04:43:14.650Z,85.50
2024-05-09T04:45:41.725Z,84.70
2024-05-09T04:48:08.614Z,85.14
2024-05-09T04:50:38.637Z,84.88
2024-05-09T04:53:08.681Z,83.05
2024-05-09T04:55:36.761Z,82.67
2024-05-09T04:58:03.850Z,82.41
2024-05-09T05:00:36.021Z,81.69
2024-05-09T05:03:10.621Z,80.37
2024-05-09T05:05:39.588Z,79.20
2024-05-09T05:08:14.684Z,80.49
2024-05-09T05:10:42.686Z,79.17
2024-05-09T05:13:12.608Z,79.60
2024-05-09T05:15:39.253Z,77.57
2024-05-09T05:18:05.966Z,76.83
2024-05-09T05:20:33.865Z,76.67
2024-05-09T05:23:01.173Z,76.22
2024-05-09T05:25:27.979Z,75.87
2024-05-09T05:27:54.618Z,74.66
2024-05-09T05:30:28.554Z,75.43
2024-05-09T05:32:59.414Z,75.30
2024-05-09T05:35:26.212Z,72.56
2024-05-09T05:37:52.997Z,72.29
2024-05-09T05:40:28.151Z,73.09
2024-05-09T05:43:02.837Z,73.75
2024-05-09T05:45:29.494Z,71.88
2024-05-09T05:47:56.486Z,71.95
2024-05-09T05:50:28.070Z,73.36
2024-05-09T05:53:02.009Z,71.48
2024-05-09T05:55:28.570Z,68.88
2024-05-09T05:57:55.086Z,70.06
2024-05-09T06:00:29.697Z,67.64
2024-05-09T06:03:05.280Z,68.47
2024-05-09T06:05:32.363Z,68.66
2024-05-09T06:07:59.600Z,67.64
2024-05-09T06:10:34.896Z,68.41
2024-05-09T06:13:05.620Z,67.62
2024-05-09T06:15:32.408Z,66.19
2024-05-09T06:17:59.479Z,65.51
2024-05-09T06:20:34.713Z,63.60
2024-05-09T06:23:04.392Z,60.16
2024-05-09T06:25:31.388Z,60.44
2024-05-09T06:27:58.944Z,60.03
2024-05-09T06:30:30.845Z,61.07
2024-05-09T06:33:05.979Z,60.80
2024-05-09T06:35:33.911Z,60.04
2024-05-09T06:38:00.955Z,60.77
2024-05-09T06:40:36.256Z,60.67
2024-05-09T06:43:10.346Z,60.74
2024-05-09T06:45:36.891Z,59.68
2024-05-09T06:48:03.803Z,59.80
2024-05-09T06:50:36.849Z,59.72
2024-05-09T06:53:05.309Z,58.78
2024-05-09T06:55:32.017Z,59.52
2024-05-09T06:57:58.821Z,58.05
2024-05-09T07:00:35.739Z,57.48
2024-05-09T07:03:10.798Z,56.92
2024-05-09T07:05:38.539Z,55.32
2024-05-09T07:08:06.446Z,56.28
2024-05-09T07:10:35.577Z,55.56
2024-05-09T07:13:03.233Z,55.57
2024-05-09T07:15:29.771Z,54.73
2024-05-09T07:17:56.572Z,54.50
2024-05-09T07:20:32.007Z,54.69
2024-05-09T07:23:02.955Z,54.04
2024-05-09T07:25:30.025Z,54.72
2024-05-09T07:27:56.795Z,54.59
2024-05-09T07:30:27.937Z,53.70
2024-05-09T07:33:00.186Z,53.34
2024-05-09T07:35:27.517Z,52.93
2024-05-09T07:37:54.418Z,52.06
2024-05-09T07:40:31.583Z,50.27
2024-05-09T07:43:07.545Z,51.64
2024-05-09T07:52:23.605Z,50.65
2024-05-09T07:53:38.700Z,49.68
2024-05-09T07:56:09.105Z,47.16
2024-05-09T07:58:36.608Z,46.92
2024-05-09T08:01:03.718Z,46.49
2024-05-09T08:03:31.189Z,47.01
2024-05-09T08:05:57.883Z,46.76
2024-05-09T08:08:24.554Z,46.76
2024-05-09T08:10:51.379Z,47.15
2024-05-09T08:13:18.068Z,48.08
2024-05-09T08:15:44.969Z,47.86
2024-05-09T08:18:12.154Z,46.87
2024-05-09T08:20:40.617Z,46.64
2024-05-09T08:23:07.663Z,46.80
2024-05-09T08:25:34.414Z,45.94
2024-05-09T08:28:01.106Z,44.94
2024-05-09T08:30:33.699Z,44.86
2024-05-09T08:33:04.621Z,44.68
2024-05-09T08:35:31.865Z,43.81
2024-05-09T08:37:58.602Z,44.01
2024-05-09T08:40:32.887Z,43.31
2024-05-09T08:43:04.475Z,43.61
2024-05-09T08:45:34.888Z,44.47
2024-05-09T08:48:02.738Z,43.91
2024-05-09T08:50:36.567Z,43.25
2024-05-09T08:53:06.316Z,43.11
2024-05-09T08:55:33.028Z,43.04
2024-05-09T08:58:02.648Z,43.31
2024-05-09T09:00:36.708Z,43.16
2024-05-09T09:03:09.239Z,42.14
2024-05-09T09:05:39.161Z,41.15
2024-05-09T09:08:07.364Z,40.31
2024-05-09T09:10:34.661Z,42.03
2024-05-09T09:13:01.896Z,42.41
2024-05-09T09:15:28.782Z,42.34
2024-05-09T09:18:00.712Z,41.41
2024-05-09T09:20:35.410Z,39.89
2024-05-09T09:23:03.671Z,38.98
2024-05-09T09:25:30.645Z,39.51
2024-05-09T09:27:58.298Z,39.09
2024-05-09T09:30:34.978Z,40.31
2024-05-09T09:33:05.942Z,39.89
2024-05-09T09:35:32.968Z,38.37
2024-05-09T09:38:03.505Z,37.81
2024-05-09T09:40:35.841Z,38.69
2024-05-09T09:43:11.811Z,36.65
2024-05-09T09:45:39.592Z,37.18
2024-05-09T09:48:07.816Z,37.85
2024-05-09T09:50:35.725Z,37.50
2024-05-09T09:53:04.754Z,36.88
2024-05-09T09:55:32.942Z,37.70
2024-05-09T09:57:59.568Z,38.13
2024-05-09T10:00:32.604Z,36.74
2024-05-09T10:03:00.718Z,36.76
2024-05-09T10:05:28.307Z,36.91
2024-05-09T10:07:56.241Z,37.54
2024-05-09T10:10:30.397Z,37.59
2024-05-09T10:13:07.652Z,36.07
2024-05-09T10:16:10.390Z,36.14
2024-05-09T10:18:38.822Z,36.04
2024-05-09T10:21:18.822Z,36.35
2024-05-09T10:24:06.033Z,35.95
2024-05-09T10:26:35.454Z,36.37
2024-05-09T10:29:15.317Z,36.60
2024-05-09T10:31:43.926Z,35.92
2024-05-09T10:34:23.282Z,35.58
2024-05-09T10:36:53.923Z,35.50
2024-05-09T10:39:21.758Z,35.98
2024-05-09T10:41:49.400Z,36.37
2024-05-09T10:44:16.653Z,36.91
2024-05-09T10:46:44.630Z,37.24
2024-05-09T10:49:14.763Z,37.65
2024-05-09T10:51:42.267Z,35.98
2024-05-09T10:54:08.969Z,35.80
2024-05-09T10:56:35.509Z,35.72
2024-05-09T10:59:05.774Z,35.81
2024-05-09T11:01:32.663Z,36.00
2024-05-09T11:03:59.712Z,36.45
2024-05-09T11:06:26.696Z,36.27
2024-05-09T11:08:53.784Z,36.28
2024-05-09T11:11:21.209Z,35.00
2024-05-09T11:13:47.869Z,35.09
2024-05-09T11:16:19.428Z,35.55
2024-05-09T11:18:57.228Z,35.81
2024-05-09T11:21:25.023Z,36.11
2024-05-09T11:23:51.941Z,36.17
2024-05-09T11:26:19.481Z,36.26
2024-05-09T11:28:46.343Z,36.44
2024-05-09T11:31:12.928Z,35.51
2024-05-09T11:33:43.111Z,35.71
2024-05-09T11:36:10.265Z,35.99
2024-05-09T11:38:37.318Z,35.87
2024-05-09T11:41:05.097Z,35.95
2024-05-09T11:43:32.193Z,36.19
2024-05-09T11:45:59.466Z,36.62
2024-05-09T11:48:27.254Z,36.16
2024-05-09T11:50:55.315Z,36.67
2024-05-09T11:53:22.217Z,36.00
2024-05-09T11:55:48.829Z,36.26
2024-05-09T11:58:15.694Z,35.72
2024-05-09T12:00:42.855Z,35.97
2024-05-09T12:03:09.630Z,35.28
2024-05-09T12:05:36.390Z,35.31
2024-05-09T12:08:03.380Z,35.24
2024-05-09T12:10:33.492Z,35.50
2024-05-09T12:13:04.797Z,35.30
2024-05-09T12:15:32.944Z,35.78
2024-05-09T12:18:02.717Z,35.71
2024-05-09T12:20:36.647Z,35.35
2024-05-09T12:23:05.874Z,35.57
2024-05-09T12:25:32.527Z,34.90
2024-05-09T12:27:59.792Z,35.03
2024-05-09T12:30:35.350Z,35.57
2024-05-09T12:33:07.082Z,35.74
2024-05-09T12:35:33.955Z,35.60
2024-05-09T12:38:02.671Z,35.90
2024-05-09T12:40:36.227Z,35.78
2024-05-09T12:43:07.223Z,35.37
2024-05-09T12:45:34.398Z,35.48
2024-05-09T12:48:01.235Z,34.72
2024-05-09T12:50:32.755Z,35.00
2024-05-09T12:53:02.037Z,35.29
2024-05-09T12:55:33.946Z,34.86
2024-05-09T12:58:08.133Z,34.73
2024-05-09T13:00:35.060Z,34.89
2024-05-09T13:03:02.215Z,34.72
2024-05-09T13:05:29.524Z,34.60
2024-05-09T13:07:56.936Z,34.54
2024-05-09T13:10:31.141Z,33.81
2024-05-09T13:13:00.938Z,33.81
2024-05-09T13:15:28.469Z,32.62
2024-05-09T13:17:59.004Z,33.22
2024-05-09T13:20:32.900Z,33.01
2024-05-09T13:23:03.192Z,32.59
2024-05-09T13:25:30.108Z,32.81
2024-05-09T13:27:57.691Z,31.88
2024-05-09T13:32:54.621Z,30.12
2024-05-09T13:35:21.388Z,30.82
2024-05-09T13:37:48.144Z,29.95
2024-05-09T13:40:14.895Z,29.14
2024-05-09T13:42:45.148Z,29.96
2024-05-09T13:45:13.195Z,29.19
2024-05-09T13:47:40.094Z,29.28
2024-05-09T13:50:11.404Z,28.43
2024-05-09T13:52:40.580Z,28.67
2024-05-09T13:55:07.391Z,28.79
2024-05-09T13:57:34.324Z,28.91
2024-05-09T14:00:01.207Z,27.77
2024-05-09T14:02:28.039Z,28.24
2024-05-09T14:04:54.944Z,27.32
2024-05-09T14:07:21.821Z,27.81
2024-05-09T14:09:48.541Z,27.40
2024-05-09T14:12:15.065Z,27.06
2024-05-09T14:14:41.712Z,28.37
2024-05-09T14:17:08.599Z,28.00
2024-05-09T14:19:35.207Z,26.56
2024-05-09T14:22:01.838Z,25.76
2024-05-09T14:24:28.549Z,24.74
2024-05-09T14:26:55.128Z,25.76
2024-05-09T14:29:21.667Z,26.05
2024-05-09T14:31:48.308Z,26.09
2024-05-09T14:34:15.304Z,26.04
2024-05-09T14:36:42.258Z,25.49
2024-05-09T14:39:09.065Z,25.50
2024-05-09T14:41:35.612Z,24.90
2024-05-09T14:44:02.078Z,25.22
2024-05-09T14:46:28.744Z,25.36
2024-05-09T14:48:55.579Z,25.38
2024-05-09T14:51:22.187Z,26.38
2024-05-09T14:53:48.734Z,26.06
2024-05-09T14:56:15.377Z,26.01
2024-05-09T14:58:41.908Z,26.91
2024-05-09T15:01:08.445Z,27.85
2024-05-09T15:03:35.116Z,28.28
2024-05-09T15:06:01.921Z,28.38
2024-05-09T15:08:28.605Z,28.87
2024-05-09T15:10:55.445Z,29.48
2024-05-09T15:13:22.158Z,29.97
2024-05-09T15:15:48.958Z,30.03
2024-05-09T15:18:16.293Z,29.91
2024-05-09T15:20:44.206Z,30.04
2024-05-09T15:23:11.025Z,30.27
2024-05-09T15:25:37.571Z,30.71
2024-05-09T15:28:05.359Z,31.20
2024-05-09T15:30:33.751Z,31.39
2024-05-09T15:33:02.042Z,31.66
2024-05-09T15:35:29.301Z,31.65
2024-05-09T15:37:56.524Z,31.18
2024-05-09T15:40:31.628Z,30.59
2024-05-09T15:43:06.138Z,29.55
2024-05-09T15:45:34.702Z,28.52
2024-05-09T15:48:02.345Z,28.18
2024-05-09T15:50:36.886Z,27.99
2024-05-09T15:53:08.297Z,28.15
2024-05-09T15:55:35.770Z,28.38
2024-05-09T15:58:04.318Z,28.11
2024-05-09T16:00:38.699Z,27.47
2024-05-09T16:03:09.446Z,26.74
2024-05-09T16:05:36.924Z,27.01
2024-05-09T16:08:04.423Z,27.26
2024-05-09T16:13:46.930Z,27.50
2024-05-09T16:16:13.755Z,27.65
2024-05-09T16:18:40.659Z,28.04
2024-05-09T16:21:08.103Z,28.00
2024-05-09T16:23:34.635Z,28.53
2024-05-09T16:26:01.192Z,29.02
2024-05-09T16:28:27.747Z,29.45
2024-05-09T16:30:54.535Z,29.97
2024-05-09T16:33:21.366Z,30.11
2024-05-09T16:35:48.155Z,30.29
2024-05-09T16:38:14.817Z,30.57
2024-05-09T16:40:41.773Z,31.22
2024-05-09T16:43:10.596Z,31.55
2024-05-09T16:45:40.177Z,31.76
2024-05-09T16:48:08.359Z,31.91
2024-05-09T16:50:36.138Z,32.18
2024-05-09T16:53:04.755Z,32.57
2024-05-09T16:55:32.170Z,32.75
2024-05-09T16:57:59.211Z,33.09
2024-05-09T17:00:35.951Z,33.33
2024-05-09T17:03:09.771Z,33.78
2024-05-09T17:05:37.052Z,34.11
2024-05-09T17:08:04.323Z,34.13
2024-05-09T17:10:33.795Z,34.17
2024-05-09T17:13:03.589Z,34.00
2024-05-09T17:15:32.194Z,34.31
2024-05-09T17:17:59.123Z,34.52
2024-05-09T17:20:32.247Z,34.60
2024-05-09T17:23:03.069Z,34.97
2024-05-09T17:25:29.741Z,35.36
2024-05-09T17:27:57.066Z,35.56
2024-05-09T17:30:32.105Z,35.80
2024-05-09T17:33:03.984Z,36.01
2024-05-09T17:35:32.114Z,36.13
2024-05-09T17:37:59.170Z,36.47
2024-05-09T17:40:32.490Z,36.92
2024-05-09T17:43:02.704Z,36.82
2024-05-09T17:45:29.560Z,37.27
2024-05-09T17:47:56.773Z,37.05
2024-05-09T17:50:30.367Z,37.25
2024-05-09T17:53:01.540Z,37.35
2024-05-09T17:55:28.756Z,37.63
2024-05-09T17:57:55.597Z,37.89
2024-05-09T18:00:32.708Z,38.49
2024-05-09T18:03:05.903Z,38.87
2024-05-09T18:05:33.174Z,39.08
2024-05-09T18:08:00.050Z,39.25
2024-05-09T18:10:33.695Z,39.56
2024-05-09T18:13:04.329Z,40.07
2024-05-09T18:15:31.018Z,40.17
2024-05-09T18:18:00.368Z,40.31
2024-05-09T18:22:56.432Z,42.25
2024-05-09T18:25:23.055Z,43.16
2024-05-09T18:27:50.067Z,42.29
2024-05-09T18:30:23.905Z,41.85
2024-05-09T18:32:54.998Z,42.26
2024-05-09T18:35:21.754Z,42.83
2024-05-09T18:37:48.384Z,43.11
2024-05-09T18:40:21.127Z,42.88
2024-05-09T18:42:54.913Z,45.59
2024-05-09T18:45:21.526Z,45.56
2024-05-09T18:47:48.261Z,44.86
2024-05-09T18:50:21.019Z,43.79
2024-05-09T18:52:55.487Z,44.02
2024-05-09T18:55:22.094Z,44.00
2024-05-09T18:57:48.715Z,45.25
2024-05-09T19:00:26.779Z,46.47
2024-05-09T19:03:00.705Z,47.37
2024-05-09T19:05:27.849Z,47.04
2024-05-09T19:07:54.644Z,47.97
2024-05-09T19:10:23.059Z,47.05
2024-05-09T19:12:52.897Z,48.31
2024-05-09T19:15:19.570Z,48.15
2024-05-09T19:17:47.182Z,47.82
2024-05-09T19:20:24.766Z,48.28
2024-05-09T19:22:56.410Z,48.41
2024-05-09T19:25:22.949Z,48.65
2024-05-09T19:27:49.467Z,49.17
2024-05-09T19:30:25.099Z,50.13
2024-05-09T19:33:00.829Z,49.60
2024-05-09T19:35:27.444Z,49.61
2024-05-09T19:37:53.986Z,49.69
2024-05-09T19:40:28.633Z,50.17
2024-05-09T19:42:58.466Z,53.98
2024-05-09T19:45:25.176Z,52.47
2024-05-09T19:47:51.951Z,51.69
2024-05-09T19:50:26.665Z,51.27
2024-05-09T19:52:59.561Z,51.91
2024-05-09T19:55:26.322Z,51.40
2024-05-09T19:57:52.933Z,52.05
2024-05-09T20:00:26.284Z,53.25
2024-05-09T20:02:58.868Z,52.78
2024-05-09T20:05:26.253Z,53.47
2024-05-09T20:07:53.461Z,55.44
2024-05-09T20:10:23.949Z,54.79
2024-05-09T20:12:55.911Z,54.81
2024-05-09T20:15:22.505Z,54.68
2024-05-09T20:17:49.176Z,55.58
2024-05-09T20:20:27.362Z,55.17
2024-05-09T20:23:00.099Z,56.04
2024-05-09T20:25:26.809Z,58.01
2024-05-09T20:27:53.407Z,58.36
2024-05-09T20:30:28.676Z,58.18
2024-05-09T20:32:59.785Z,57.84
2024-05-09T20:35:26.850Z,57.89
2024-05-09T20:37:53.490Z,57.69
2024-05-09T20:40:28.282Z,59.49
2024-05-09T20:42:59.282Z,58.26
2024-05-09T20:45:26.440Z,58.15
2024-05-09T20:47:53.214Z,57.85
2024-05-09T20:50:28.432Z,57.30
2024-05-09T20:53:02.976Z,58.58
2024-05-09T20:55:29.819Z,59.10
2024-05-09T20:57:56.869Z,58.66
2024-05-09T21:00:30.275Z,58.94
2024-05-09T21:03:06.837Z,59.94
2024-05-09T21:05:34.253Z,60.44
2024-05-09T21:08:01.290Z,59.50
2024-05-09T21:10:32.679Z,59.14
2024-05-09T21:13:01.665Z,59.96
2024-05-09T21:15:29.025Z,61.64
2024-05-09T21:17:55.595Z,60.70
2024-05-09T21:20:28.603Z,61.08
2024-05-09T21:22:58.224Z,62.08
2024-05-09T21:25:24.949Z,61.45
2024-05-09T21:27:51.710Z,61.86
2024-05-09T21:30:27.331Z,62.04
2024-05-09T21:32:59.920Z,62.25
2024-05-09T21:35:26.549Z,63.03
2024-05-09T21:37:53.312Z,63.08
2024-05-09T21:40:27.114Z,62.25
2024-05-09T21:43:00.944Z,63.04
2024-05-09T21:45:27.673Z,65.06
2024-05-09T21:47:54.531Z,67.96
2024-05-09T21:50:28.009Z,65.88
2024-05-09T21:52:59.257Z,65.78
2024-05-09T21:55:26.057Z,69.86
2024-05-09T21:57:52.802Z,66.47
2024-05-09T22:00:28.832Z,66.59
2024-05-09T22:03:02.512Z,66.83
2024-05-09T22:05:29.731Z,68.23
2024-05-09T22:07:56.643Z,73.26
2024-05-09T22:10:30.490Z,75.55
2024-05-09T22:13:00.729Z,76.78
2024-05-09T22:15:27.502Z,71.12
2024-05-09T22:17:56.168Z,69.60
2024-05-09T22:20:29.446Z,69.79
2024-05-09T22:23:03.308Z,69.47
2024-05-09T22:25:31.147Z,71.76
2024-05-09T22:27:58.771Z,70.45
2024-05-09T22:30:34.197Z,70.62
2024-05-09T22:33:06.155Z,71.32
2024-05-09T22:35:33.121Z,70.28
2024-05-09T22:38:00.101Z,71.08
2024-05-09T22:40:37.738Z,70.77
2024-05-09T22:43:12.760Z,71.40
2024-05-09T22:45:39.579Z,73.20
2024-05-09T22:48:07.776Z,72.49
2024-05-09T22:50:34.767Z,72.45
2024-05-09T22:53:01.474Z,74.52
2024-05-09T22:55:28.395Z,72.61
2024-05-09T22:57:55.236Z,71.95
2024-05-09T23:00:29.064Z,72.01
2024-05-09T23:02:59.830Z,72.04
2024-05-09T23:05:26.696Z,72.99
2024-05-09T23:07:53.529Z,73.03
2024-05-09T23:10:27.482Z,72.71
2024-05-09T23:12:59.112Z,75.42
2024-05-09T23:15:25.746Z,76.88
2024-05-09T23:17:52.594Z,74.66
2024-05-09T23:20:29.729Z,75.49
2024-05-09T23:23:03.292Z,75.25
2024-05-09T23:25:29.741Z,73.44
2024-05-09T23:27:56.298Z,74.48
2024-05-09T23:30:33.042Z,73.76
2024-05-09T23:33:05.172Z,73.62
2024-05-09T23:35:31.983Z,73.37
2024-05-09T23:37:58.560Z,74.73
2024-05-09T23:40:36.402Z,74.98
2024-05-09T23:43:06.462Z,77.42
2024-05-09T23:45:33.486Z,76.66
2024-05-09T23:48:00.693Z,75.78
2024-05-09T23:50:34.360Z,77.51
2024-05-09T23:53:04.651Z,81.99
2024-05-09T23:55:31.534Z,82.34
2024-05-09T23:57:58.546Z,79.18
